sensor_id;sensor_type;location;lat;lon;timestamp;pressure;altitude;pressure_sealevel;temperature;humidity
18678;BME280;9469;51.114;13.914;2023-03-16T00:04:54;99292.56;;;0.58;100.00
18678;BME280;9469;51.114;13.914;2023-03-16T00:09:59;99298.06;;;0.68;100.00
18678;BME280;9469;51.114;13.914;2023-03-16T00:15:09;99296.75;;;0.59;100.00
18678;BME280;9469;51.114;13.914;2023-03-16T00:20:17;99300.53;;;0.63;100.00
18678;BME280;9469;51.114;13.914;2023-03-16T00:25:24;99292.03;;;0.50;100.00
18678;BME280;9469;51.114;13.914;2023-03-16T00:30:32;99282.19;;;0.52;100.00
18678;BME280;9469;51.114;13.914;2023-03-16T00:35:38;99281.16;;;0.53;100.00
18678;BME280;9469;51.114;13.914;2023-03-16T00:40:52;99286.47;;;0.46;100.00
18678;BME280;9469;51.114;13.914;2023-03-16T00:46:03;99291.34;;;0.43;100.00
18678;BME280;9469;51.114;13.914;2023-03-16T00:51:14;99288.94;;;0.41;100.00
18678;BME280;9469;51.114;13.914;2023-03-16T00:56:21;99302.97;;;0.47;100.00
18678;BME280;9469;51.114;13.914;2023-03-16T01:01:31;99301.59;;;0.26;100.00
18678;BME280;9469;51.114;13.914;2023-03-16T01:06:38;99306.41;;;0.11;100.00
18678;BME280;9469;51.114;13.914;2023-03-16T01:11:43;99310.19;;;-0.03;100.00
18678;BME280;9469;51.114;13.914;2023-03-16T01:16:56;99316.00;;;-0.01;100.00
18678;BME280;9469;51.114;13.914;2023-03-16T01:22:04;99324.84;;;-0.02;100.00
18678;BME280;9469;51.114;13.914;2023-03-16T01:27:12;99325.81;;;0.04;100.00
18678;BME280;9469;51.114;13.914;2023-03-16T01:32:20;99339.22;;;-0.11;100.00
18678;BME280;9469;51.114;13.914;2023-03-16T01:37:28;99340.69;;;0.03;100.00
18678;BME280;9469;51.114;13.914;2023-03-16T01:42:47;99338.88;;;0.04;100.00
18678;BME280;9469;51.114;13.914;2023-03-16T01:47:56;99336.34;;;-0.03;100.00
18678;BME280;9469;51.114;13.914;2023-03-16T01:53:03;99334.94;;;-0.06;100.00
18678;BME280;9469;51.114;13.914;2023-03-16T01:58:13;99337.84;;;-0.14;100.00
18678;BME280;9469;51.114;13.914;2023-03-16T02:03:22;99342.69;;;-0.17;100.00
18678;BME280;9469;51.114;13.914;2023-03-16T02:08:36;99335.59;;;-0.10;100.00
18678;BME280;9469;51.114;13.914;2023-03-16T02:13:46;99340.66;;;-0.15;100.00
18678;BME280;9469;51.114;13.914;2023-03-16T02:18:59;99336.38;;;-0.28;100.00
18678;BME280;9469;51.114;13.914;2023-03-16T02:24:04;99338.88;;;-0.39;100.00
18678;BME280;9469;51.114;13.914;2023-03-16T02:29:17;99341.38;;;-0.51;100.00
18678;BME280;9469;51.114;13.914;2023-03-16T02:34:28;99338.53;;;-0.49;100.00
18678;BME280;9469;51.114;13.914;2023-03-16T02:39:33;99344.53;;;-0.42;100.00
18678;BME280;9469;51.114;13.914;2023-03-16T02:44:39;99348.59;;;-0.46;100.00
18678;BME280;9469;51.114;13.914;2023-03-16T02:50:00;99343.03;;;-0.56;100.00
18678;BME280;9469;51.114;13.914;2023-03-16T02:55:09;99351.50;;;-0.61;100.00
18678;BME280;9469;51.114;13.914;2023-03-16T03:00:16;99354.44;;;-0.76;100.00
18678;BME280;9469;51.114;13.914;2023-03-16T03:05:30;99353.75;;;-0.64;100.00
18678;BME280;9469;51.114;13.914;2023-03-16T03:10:38;99357.75;;;-0.62;100.00
18678;BME280;9469;51.114;13.914;2023-03-16T03:15:44;99358.88;;;-0.83;100.00
18678;BME280;9469;51.114;13.914;2023-03-16T03:20:52;99356.09;;;-0.88;100.00
18678;BME280;9469;51.114;13.914;2023-03-16T03:25:59;99357.31;;;-1.28;100.00
18678;BME280;9469;51.114;13.914;2023-03-16T03:31:06;99364.44;;;-1.04;100.00
18678;BME280;9469;51.114;13.914;2023-03-16T03:36:17;99364.38;;;-0.97;100.00
18678;BME280;9469;51.114;13.914;2023-03-16T03:41:24;99372.69;;;-1.07;100.00
18678;BME280;9469;51.114;13.914;2023-03-16T03:46:30;99372.63;;;-0.94;100.00
18678;BME280;9469;51.114;13.914;2023-03-16T03:51:38;99365.09;;;-1.15;100.00
18678;BME280;9469;51.114;13.914;2023-03-16T03:56:50;99366.63;;;-1.01;100.00
18678;BME280;9469;51.114;13.914;2023-03-16T04:01:56;99372.44;;;-0.99;100.00
18678;BME280;9469;51.114;13.914;2023-03-16T04:07:15;99377.16;;;-1.14;100.00
18678;BME280;9469;51.114;13.914;2023-03-16T04:12:34;99376.13;;;-1.13;100.00
18678;BME280;9469;51.114;13.914;2023-03-16T04:17:41;99380.31;;;-1.05;100.00
18678;BME280;9469;51.114;13.914;2023-03-16T04:22:52;99375.88;;;-0.98;100.00
18678;BME280;9469;51.114;13.914;2023-03-16T04:27:59;99362.63;;;-1.03;100.00
18678;BME280;9469;51.114;13.914;2023-03-16T04:33:08;99373.63;;;-0.95;100.00
18678;BME280;9469;51.114;13.914;2023-03-16T04:38:16;99372.78;;;-0.89;100.00
18678;BME280;9469;51.114;13.914;2023-03-16T04:43:30;99370.06;;;-1.00;100.00
18678;BME280;9469;51.114;13.914;2023-03-16T04:48:43;99378.09;;;-1.08;100.00
18678;BME280;9469;51.114;13.914;2023-03-16T04:53:51;99379.56;;;-1.19;100.00
18678;BME280;9469;51.114;13.914;2023-03-16T04:59:02;99374.28;;;-1.06;100.00
18678;BME280;9469;51.114;13.914;2023-03-16T05:04:32;99369.59;;;-0.97;100.00
18678;BME280;9469;51.114;13.914;2023-03-16T05:09:41;99378.44;;;-0.92;100.00
18678;BME280;9469;51.114;13.914;2023-03-16T05:14:47;99378.31;;;-1.10;100.00
18678;BME280;9469;51.114;13.914;2023-03-16T05:20:01;99390.09;;;-0.94;100.00
18678;BME280;9469;51.114;13.914;2023-03-16T05:25:21;99388.38;;;-1.07;100.00
18678;BME280;9469;51.114;13.914;2023-03-16T05:30:32;99396.38;;;-1.08;100.00
18678;BME280;9469;51.114;13.914;2023-03-16T05:35:44;99394.59;;;-0.77;100.00
18678;BME280;9469;51.114;13.914;2023-03-16T05:40:53;99395.53;;;-0.96;100.00
18678;BME280;9469;51.114;13.914;2023-03-16T05:46:26;99399.00;;;-0.70;100.00
18678;BME280;9469;51.114;13.914;2023-03-16T05:51:31;99405.69;;;-0.81;100.00
18678;BME280;9469;51.114;13.914;2023-03-16T05:56:46;99409.41;;;-0.95;100.00
18678;BME280;9469;51.114;13.914;2023-03-16T06:02:08;99404.16;;;-0.89;100.00
18678;BME280;9469;51.114;13.914;2023-03-16T06:07:16;99407.72;;;-0.52;100.00
18678;BME280;9469;51.114;13.914;2023-03-16T06:12:29;99402.88;;;0.44;100.00
18678;BME280;9469;51.114;13.914;2023-03-16T06:17:36;99405.44;;;4.24;89.03
18678;BME280;9469;51.114;13.914;2023-03-16T06:22:43;99409.50;;;3.99;86.12
18678;BME280;9469;51.114;13.914;2023-03-16T06:28:00;99401.03;;;6.95;75.34
18678;BME280;9469;51.114;13.914;2023-03-16T06:33:22;99409.91;;;8.47;68.81
18678;BME280;9469;51.114;13.914;2023-03-16T06:38:30;99413.44;;;6.85;72.74
18678;BME280;9469;51.114;13.914;2023-03-16T06:43:42;99407.03;;;6.81;72.76
18678;BME280;9469;51.114;13.914;2023-03-16T06:48:48;99406.72;;;7.44;70.88
18678;BME280;9469;51.114;13.914;2023-03-16T06:53:54;99413.09;;;7.78;69.11
18678;BME280;9469;51.114;13.914;2023-03-16T06:59:02;99415.75;;;8.14;70.10
18678;BME280;9469;51.114;13.914;2023-03-16T07:04:08;99413.94;;;9.03;65.61
18678;BME280;9469;51.114;13.914;2023-03-16T07:09:15;99412.59;;;7.66;68.72
18678;BME280;9469;51.114;13.914;2023-03-16T07:14:23;99409.00;;;10.13;63.05
18678;BME280;9469;51.114;13.914;2023-03-16T07:19:30;99417.41;;;10.72;62.07
18678;BME280;9469;51.114;13.914;2023-03-16T07:24:39;99414.34;;;11.64;60.46
18678;BME280;9469;51.114;13.914;2023-03-16T07:29:49;99419.81;;;10.22;63.36
18678;BME280;9469;51.114;13.914;2023-03-16T07:34:58;99414.03;;;9.37;65.32
18678;BME280;9469;51.114;13.914;2023-03-16T07:40:07;99417.22;;;9.39;66.26
18678;BME280;9469;51.114;13.914;2023-03-16T07:45:18;99413.28;;;11.83;59.17
18678;BME280;9469;51.114;13.914;2023-03-16T07:50:24;99404.84;;;12.54;57.54
18678;BME280;9469;51.114;13.914;2023-03-16T07:55:30;99421.31;;;10.56;63.11
18678;BME280;9469;51.114;13.914;2023-03-16T08:00:42;99409.69;;;11.74;60.32
18678;BME280;9469;51.114;13.914;2023-03-16T08:05:47;99416.34;;;12.09;58.70
18678;BME280;9469;51.114;13.914;2023-03-16T08:10:52;99416.56;;;15.24;51.93
18678;BME280;9469;51.114;13.914;2023-03-16T08:16:10;99406.06;;;14.88;52.36
18678;BME280;9469;51.114;13.914;2023-03-16T08:21:18;99413.09;;;16.09;49.57
18678;BME280;9469;51.114;13.914;2023-03-16T08:26:24;99428.06;;;12.40;55.93
18678;BME280;9469;51.114;13.914;2023-03-16T08:31:34;99418.09;;;13.27;55.43
18678;BME280;9469;51.114;13.914;2023-03-16T08:36:47;99418.41;;;15.06;52.09
18678;BME280;9469;51.114;13.914;2023-03-16T08:41:52;99422.41;;;15.26;50.06
18678;BME280;9469;51.114;13.914;2023-03-16T08:47:07;99422.84;;;16.22;46.99
18678;BME280;9469;51.114;13.914;2023-03-16T08:52:16;99431.69;;;16.31;45.80
18678;BME280;9469;51.114;13.914;2023-03-16T08:57:21;99433.06;;;14.08;48.51
18678;BME280;9469;51.114;13.914;2023-03-16T09:02:32;99446.66;;;12.13;52.16
18678;BME280;9469;51.114;13.914;2023-03-16T09:07:39;99430.16;;;15.45;49.04
18678;BME280;9469;51.114;13.914;2023-03-16T09:12:48;99421.00;;;15.97;46.76
18678;BME280;9469;51.114;13.914;2023-03-16T09:17:56;99452.69;;;11.07;53.52
18678;BME280;9469;51.114;13.914;2023-03-16T09:23:04;99447.09;;;10.85;53.59
18678;BME280;9469;51.114;13.914;2023-03-16T09:28:11;99453.34;;;11.17;54.16
18678;BME280;9469;51.114;13.914;2023-03-16T09:33:23;99448.69;;;13.93;49.52
18678;BME280;9469;51.114;13.914;2023-03-16T09:38:29;99445.38;;;15.19;47.71
18678;BME280;9469;51.114;13.914;2023-03-16T09:43:50;99445.34;;;15.58;46.80
18678;BME280;9469;51.114;13.914;2023-03-16T09:49:01;99457.19;;;13.10;49.37
18678;BME280;9469;51.114;13.914;2023-03-16T09:54:16;99451.91;;;12.50;53.27
18678;BME280;9469;51.114;13.914;2023-03-16T09:59:40;99454.78;;;12.67;53.64
18678;BME280;9469;51.114;13.914;2023-03-16T10:05:06;99449.41;;;11.15;54.43
18678;BME280;9469;51.114;13.914;2023-03-16T10:10:20;99441.53;;;11.84;52.70
18678;BME280;9469;51.114;13.914;2023-03-16T10:15:34;99444.41;;;12.20;52.26
18678;BME280;9469;51.114;13.914;2023-03-16T10:20:43;99429.50;;;15.99;47.09
18678;BME280;9469;51.114;13.914;2023-03-16T10:25:50;99441.53;;;11.84;47.63
18678;BME280;9469;51.114;13.914;2023-03-16T10:30:58;99438.28;;;14.66;44.48
18678;BME280;9469;51.114;13.914;2023-03-16T10:36:21;99430.03;;;15.67;45.34
18678;BME280;9469;51.114;13.914;2023-03-16T10:41:32;99430.03;;;14.93;46.49
18678;BME280;9469;51.114;13.914;2023-03-16T10:46:43;99421.94;;;16.01;45.83
18678;BME280;9469;51.114;13.914;2023-03-16T10:52:05;99439.25;;;15.27;47.21
18678;BME280;9469;51.114;13.914;2023-03-16T10:57:21;99432.19;;;14.74;48.42
18678;BME280;9469;51.114;13.914;2023-03-16T11:02:31;99434.47;;;11.37;50.97
18678;BME280;9469;51.114;13.914;2023-03-16T11:07:46;99415.91;;;14.62;49.00
18678;BME280;9469;51.114;13.914;2023-03-16T11:12:52;99404.84;;;15.12;47.25
18678;BME280;9469;51.114;13.914;2023-03-16T11:18:03;99407.97;;;12.29;49.62
18678;BME280;9469;51.114;13.914;2023-03-16T11:23:16;99408.56;;;11.01;53.25
18678;BME280;9469;51.114;13.914;2023-03-16T11:28:33;99389.00;;;14.36;47.40
18678;BME280;9469;51.114;13.914;2023-03-16T11:33:40;99387.56;;;11.18;49.67
18678;BME280;9469;51.114;13.914;2023-03-16T11:38:54;99390.75;;;9.96;51.52
18678;BME280;9469;51.114;13.914;2023-03-16T11:44:11;99379.31;;;12.21;49.10
18678;BME280;9469;51.114;13.914;2023-03-16T11:49:43;99376.78;;;13.69;46.56
18678;BME280;9469;51.114;13.914;2023-03-16T11:55:00;99376.94;;;13.01;49.15
18678;BME280;9469;51.114;13.914;2023-03-16T12:00:33;99381.72;;;12.50;49.38
18678;BME280;9469;51.114;13.914;2023-03-16T12:05:55;99362.81;;;12.33;48.73
18678;BME280;9469;51.114;13.914;2023-03-16T12:11:13;99355.97;;;14.41;46.13
18678;BME280;9469;51.114;13.914;2023-03-16T12:16:26;99347.09;;;13.35;46.57
18678;BME280;9469;51.114;13.914;2023-03-16T12:21:58;99356.97;;;13.70;46.50
18678;BME280;9469;51.114;13.914;2023-03-16T12:27:11;99351.63;;;13.12;47.48
18678;BME280;9469;51.114;13.914;2023-03-16T12:32:24;99355.31;;;12.89;47.13
18678;BME280;9469;51.114;13.914;2023-03-16T12:37:36;99331.56;;;12.06;46.79
18678;BME280;9469;51.114;13.914;2023-03-16T12:43:11;99332.66;;;11.91;47.99
18678;BME280;9469;51.114;13.914;2023-03-16T12:48:26;99329.72;;;12.61;46.90
18678;BME280;9469;51.114;13.914;2023-03-16T12:53:53;99339.81;;;12.77;44.75
18678;BME280;9469;51.114;13.914;2023-03-16T12:59:16;99330.81;;;10.09;49.14
18678;BME280;9469;51.114;13.914;2023-03-16T13:04:30;99319.72;;;10.97;48.20
18678;BME280;9469;51.114;13.914;2023-03-16T13:09:41;99315.16;;;10.13;48.15
18678;BME280;9469;51.114;13.914;2023-03-16T13:14:54;99317.31;;;11.32;49.99
18678;BME280;9469;51.114;13.914;2023-03-16T13:20:05;99307.19;;;12.53;46.72
18678;BME280;9469;51.114;13.914;2023-03-16T13:25:40;99304.69;;;11.89;46.70
18678;BME280;9469;51.114;13.914;2023-03-16T13:30:49;99302.81;;;11.57;46.82
18678;BME280;9469;51.114;13.914;2023-03-16T13:35:59;99294.03;;;11.57;47.08
18678;BME280;9469;51.114;13.914;2023-03-16T13:41:09;99291.94;;;11.03;45.63
18678;BME280;9469;51.114;13.914;2023-03-16T13:46:19;99282.59;;;11.24;48.94
18678;BME280;9469;51.114;13.914;2023-03-16T13:51:25;99283.41;;;11.38;49.80
18678;BME280;9469;51.114;13.914;2023-03-16T13:56:34;99280.28;;;10.99;51.26
18678;BME280;9469;51.114;13.914;2023-03-16T14:01:46;99274.00;;;11.08;49.93
18678;BME280;9469;51.114;13.914;2023-03-16T14:06:56;99270.44;;;10.80;49.01
18678;BME280;9469;51.114;13.914;2023-03-16T14:12:03;99265.56;;;10.88;46.09
18678;BME280;9469;51.114;13.914;2023-03-16T14:17:16;99264.84;;;10.40;48.15
18678;BME280;9469;51.114;13.914;2023-03-16T14:22:27;99256.78;;;10.87;49.81
18678;BME280;9469;51.114;13.914;2023-03-16T14:27:55;99242.44;;;10.46;51.02
18678;BME280;9469;51.114;13.914;2023-03-16T14:33:25;99244.72;;;11.08;49.69
18678;BME280;9469;51.114;13.914;2023-03-16T14:38:34;99247.34;;;11.27;48.50
18678;BME280;9469;51.114;13.914;2023-03-16T14:43:46;99246.13;;;10.68;45.33
18678;BME280;9469;51.114;13.914;2023-03-16T14:49:15;99250.44;;;10.83;46.97
18678;BME280;9469;51.114;13.914;2023-03-16T14:54:25;99252.44;;;10.72;48.60
18678;BME280;9469;51.114;13.914;2023-03-16T14:59:36;99248.97;;;10.11;47.86
18678;BME280;9469;51.114;13.914;2023-03-16T15:04:46;99245.25;;;10.12;50.06
18678;BME280;9469;51.114;13.914;2023-03-16T15:09:56;99230.38;;;9.59;50.66
18678;BME280;9469;51.114;13.914;2023-03-16T15:15:21;99231.91;;;9.65;50.35
18678;BME280;9469;51.114;13.914;2023-03-16T15:20:37;99231.56;;;9.71;50.03
18678;BME280;9469;51.114;13.914;2023-03-16T15:25:47;99214.56;;;9.96;47.26
18678;BME280;9469;51.114;13.914;2023-03-16T15:30:56;99225.47;;;10.18;47.97
18678;BME280;9469;51.114;13.914;2023-03-16T15:36:12;99224.72;;;9.65;48.63
18678;BME280;9469;51.114;13.914;2023-03-16T15:41:19;99220.25;;;9.84;50.04
18678;BME280;9469;51.114;13.914;2023-03-16T15:46:26;99218.06;;;9.68;50.49
18678;BME280;9469;51.114;13.914;2023-03-16T15:51:35;99232.66;;;9.42;51.09
18678;BME280;9469;51.114;13.914;2023-03-16T15:56:42;99216.16;;;9.45;52.20
18678;BME280;9469;51.114;13.914;2023-03-16T16:01:56;99200.81;;;9.36;52.34
18678;BME280;9469;51.114;13.914;2023-03-16T16:07:13;99194.41;;;9.43;53.49
18678;BME280;9469;51.114;13.914;2023-03-16T16:12:30;99185.34;;;9.20;53.80
18678;BME280;9469;51.114;13.914;2023-03-16T16:17:36;99209.69;;;8.93;54.37
18678;BME280;9469;51.114;13.914;2023-03-16T16:23:07;99205.44;;;8.92;55.27
18678;BME280;9469;51.114;13.914;2023-03-16T16:28:17;99213.56;;;8.67;56.52
18678;BME280;9469;51.114;13.914;2023-03-16T16:33:25;99214.69;;;8.61;56.73
18678;BME280;9469;51.114;13.914;2023-03-16T16:38:34;99237.78;;;8.55;57.94
18678;BME280;9469;51.114;13.914;2023-03-16T16:43:42;99239.88;;;8.58;57.85
18678;BME280;9469;51.114;13.914;2023-03-16T16:48:50;99240.28;;;8.22;58.91
18678;BME280;9469;51.114;13.914;2023-03-16T16:53:59;99234.91;;;7.58;60.49
18678;BME280;9469;51.114;13.914;2023-03-16T16:59:13;99228.56;;;7.59;60.93
18678;BME280;9469;51.114;13.914;2023-03-16T17:04:20;99230.94;;;7.60;61.07
18678;BME280;9469;51.114;13.914;2023-03-16T17:09:31;99216.16;;;7.14;62.53
18678;BME280;9469;51.114;13.914;2023-03-16T17:14:37;99216.69;;;6.91;63.58
18678;BME280;9469;51.114;13.914;2023-03-16T17:19:44;99207.44;;;6.98;63.61
18678;BME280;9469;51.114;13.914;2023-03-16T17:24:53;99218.25;;;6.67;64.68
18678;BME280;9469;51.114;13.914;2023-03-16T17:30:03;99216.13;;;6.64;65.78
18678;BME280;9469;51.114;13.914;2023-03-16T17:35:12;99215.31;;;6.53;66.89
18678;BME280;9469;51.114;13.914;2023-03-16T17:40:22;99219.72;;;6.27;67.37
18678;BME280;9469;51.114;13.914;2023-03-16T17:45:28;99226.63;;;6.43;67.30
18678;BME280;9469;51.114;13.914;2023-03-16T17:50:34;99224.03;;;6.48;66.77
18678;BME280;9469;51.114;13.914;2023-03-16T17:55:44;99215.00;;;6.34;67.08
18678;BME280;9469;51.114;13.914;2023-03-16T18:00:50;99208.06;;;6.18;66.88
18678;BME280;9469;51.114;13.914;2023-03-16T18:05:56;99196.63;;;5.98;67.99
18678;BME280;9469;51.114;13.914;2023-03-16T18:11:09;99205.06;;;5.90;68.85
18678;BME280;9469;51.114;13.914;2023-03-16T18:16:18;99197.91;;;5.85;69.28
18678;BME280;9469;51.114;13.914;2023-03-16T18:21:31;99202.63;;;5.41;71.39
18678;BME280;9469;51.114;13.914;2023-03-16T18:26:41;99187.03;;;5.35;71.90
18678;BME280;9469;51.114;13.914;2023-03-16T18:31:54;99189.03;;;5.23;72.86
18678;BME280;9469;51.114;13.914;2023-03-16T18:37:04;99185.28;;;5.14;73.48
18678;BME280;9469;51.114;13.914;2023-03-16T18:42:17;99182.53;;;4.98;74.33
18678;BME280;9469;51.114;13.914;2023-03-16T18:47:26;99190.44;;;4.98;75.19
18678;BME280;9469;51.114;13.914;2023-03-16T18:52:34;99177.84;;;5.05;75.44
18678;BME280;9469;51.114;13.914;2023-03-16T18:57:47;99187.59;;;5.05;75.93
18678;BME280;9469;51.114;13.914;2023-03-16T19:02:56;99182.97;;;4.85;76.90
18678;BME280;9469;51.114;13.914;2023-03-16T19:08:04;99175.59;;;4.87;76.96
18678;BME280;9469;51.114;13.914;2023-03-16T19:13:14;99172.25;;;4.97;76.97
18678;BME280;9469;51.114;13.914;2023-03-16T19:18:22;99172.56;;;5.05;76.59
18678;BME280;9469;51.114;13.914;2023-03-16T19:23:32;99179.47;;;5.06;76.42
18678;BME280;9469;51.114;13.914;2023-03-16T19:28:43;99164.66;;;5.05;76.16
18678;BME280;9469;51.114;13.914;2023-03-16T19:33:50;99158.13;;;5.13;75.37
18678;BME280;9469;51.114;13.914;2023-03-16T19:38:58;99164.75;;;5.21;74.75
18678;BME280;9469;51.114;13.914;2023-03-16T19:44:13;99148.38;;;5.14;73.68
18678;BME280;9469;51.114;13.914;2023-03-16T19:49:22;99139.34;;;5.04;73.80
18678;BME280;9469;51.114;13.914;2023-03-16T19:54:29;99139.28;;;4.94;74.25
18678;BME280;9469;51.114;13.914;2023-03-16T19:59:41;99135.56;;;4.95;73.96
18678;BME280;9469;51.114;13.914;2023-03-16T20:04:47;99146.31;;;5.21;73.11
18678;BME280;9469;51.114;13.914;2023-03-16T20:09:53;99127.66;;;4.90;73.66
18678;BME280;9469;51.114;13.914;2023-03-16T20:15:03;99141.03;;;5.21;73.64
18678;BME280;9469;51.114;13.914;2023-03-16T20:20:18;99145.34;;;4.95;73.88
18678;BME280;9469;51.114;13.914;2023-03-16T20:25:27;99150.91;;;4.98;74.29
18678;BME280;9469;51.114;13.914;2023-03-16T20:30:36;99131.06;;;4.91;74.66
18678;BME280;9469;51.114;13.914;2023-03-16T20:35:44;99137.09;;;4.86;74.68
18678;BME280;9469;51.114;13.914;2023-03-16T20:40:52;99138.03;;;5.02;74.08
18678;BME280;9469;51.114;13.914;2023-03-16T20:46:01;99122.78;;;4.77;74.64
18678;BME280;9469;51.114;13.914;2023-03-16T20:51:11;99137.63;;;4.83;74.59
18678;BME280;9469;51.114;13.914;2023-03-16T20:56:19;99131.66;;;4.98;74.16
18678;BME280;9469;51.114;13.914;2023-03-16T21:01:29;99114.03;;;4.67;75.16
18678;BME280;9469;51.114;13.914;2023-03-16T21:06:35;99118.09;;;4.79;75.31
18678;BME280;9469;51.114;13.914;2023-03-16T21:11:41;99099.47;;;4.59;75.41
18678;BME280;9469;51.114;13.914;2023-03-16T21:16:50;99108.16;;;4.60;75.56
18678;BME280;9469;51.114;13.914;2023-03-16T21:21:56;99103.19;;;4.63;75.42
18678;BME280;9469;51.114;13.914;2023-03-16T21:27:03;99098.38;;;4.55;75.83
18678;BME280;9469;51.114;13.914;2023-03-16T21:32:17;99099.72;;;4.58;75.81
18678;BME280;9469;51.114;13.914;2023-03-16T21:37:24;99100.25;;;4.60;75.67
18678;BME280;9469;51.114;13.914;2023-03-16T21:42:31;99087.28;;;4.53;75.93
18678;BME280;9469;51.114;13.914;2023-03-16T21:47:42;99081.31;;;4.31;75.89
18678;BME280;9469;51.114;13.914;2023-03-16T21:52:49;99092.94;;;4.35;76.62
18678;BME280;9469;51.114;13.914;2023-03-16T21:57:56;99102.09;;;4.59;75.27
18678;BME280;9469;51.114;13.914;2023-03-16T22:03:21;99097.25;;;4.46;75.15
18678;BME280;9469;51.114;13.914;2023-03-16T22:08:29;99100.09;;;4.40;75.65
18678;BME280;9469;51.114;13.914;2023-03-16T22:13:37;99090.41;;;4.45;75.19
18678;BME280;9469;51.114;13.914;2023-03-16T22:18:48;99099.16;;;4.24;76.08
18678;BME280;9469;51.114;13.914;2023-03-16T22:23:54;99083.72;;;4.06;76.23
18678;BME280;9469;51.114;13.914;2023-03-16T22:29:01;99079.00;;;4.08;76.49
18678;BME280;9469;51.114;13.914;2023-03-16T22:34:19;99056.78;;;3.99;76.39
18678;BME280;9469;51.114;13.914;2023-03-16T22:39:30;99042.00;;;3.93;76.12
18678;BME280;9469;51.114;13.914;2023-03-16T22:44:40;99045.78;;;4.02;75.42
18678;BME280;9469;51.114;13.914;2023-03-16T22:49:49;99044.75;;;4.08;75.54
18678;BME280;9469;51.114;13.914;2023-03-16T22:54:55;99030.78;;;4.02;74.82
18678;BME280;9469;51.114;13.914;2023-03-16T23:00:03;99031.41;;;4.14;74.63
18678;BME280;9469;51.114;13.914;2023-03-16T23:05:21;99019.09;;;4.20;74.33
18678;BME280;9469;51.114;13.914;2023-03-16T23:10:28;99040.00;;;4.05;74.56
18678;BME280;9469;51.114;13.914;2023-03-16T23:15:34;99033.63;;;4.01;74.55
18678;BME280;9469;51.114;13.914;2023-03-16T23:20:44;99034.16;;;3.98;73.71
18678;BME280;9469;51.114;13.914;2023-03-16T23:25:51;99043.47;;;4.10;73.09
18678;BME280;9469;51.114;13.914;2023-03-16T23:30:56;99029.56;;;4.15;72.18
18678;BME280;9469;51.114;13.914;2023-03-16T23:36:11;99020.13;;;4.19;71.30
18678;BME280;9469;51.114;13.914;2023-03-16T23:41:20;99017.69;;;4.44;70.06
18678;BME280;9469;51.114;13.914;2023-03-16T23:46:28;99009.03;;;4.49;69.57
18678;BME280;9469;51.114;13.914;2023-03-16T23:51:37;99033.06;;;4.57;69.31
18678;BME280;9469;51.114;13.914;2023-03-16T23:56:44;99014.06;;;4.55;68.98
